createdAt,value
2023-03-07T00:00:05.659Z,3.02
2023-03-07T00:02:39.385Z,3.19
2023-03-07T00:05:14.827Z,2.99
2023-03-07T00:07:47.746Z,3.04
2023-03-07T00:10:22.198Z,3.11
2023-03-07T00:12:55.151Z,3.18
2023-03-07T00:15:28.507Z,3.08
2023-03-07T00:18:01.555Z,3.09
2023-03-07T00:20:34.556Z,3.05
2023-03-07T00:23:07.687Z,3.04
2023-03-07T00:25:42.073Z,2.96
2023-03-07T00:28:15.763Z,3.08
2023-03-07T00:30:48.771Z,3.15
2023-03-07T00:33:21.991Z,3.11
2023-03-07T00:35:59.814Z,3.11
2023-03-07T00:38:33.532Z,3.07
2023-03-07T00:41:10.254Z,3.20
2023-03-07T00:43:43.534Z,3.11
2023-03-07T00:46:17.546Z,2.91
2023-03-07T00:48:50.437Z,3.30
2023-03-07T00:51:25.257Z,3.01
2023-03-07T00:53:58.371Z,3.12
2023-03-07T00:56:32.956Z,3.10
2023-03-07T00:59:06.092Z,3.22
2023-03-07T01:01:39.506Z,3.20
2023-03-07T01:04:12.495Z,3.18
2023-03-07T01:06:45.843Z,2.96
2023-03-07T01:09:18.860Z,3.05
2023-03-07T01:11:53.621Z,3.06
2023-03-07T01:14:26.674Z,2.96
2023-03-07T01:16:59.705Z,3.04
2023-03-07T01:19:32.656Z,3.03
2023-03-07T01:22:05.923Z,3.12
2023-03-07T01:24:40.354Z,3.12
2023-03-07T01:27:14.827Z,3.07
2023-03-07T01:29:47.644Z,3.05
2023-03-07T01:32:20.782Z,2.97
2023-03-07T01:34:53.771Z,3.04
2023-03-07T01:37:26.973Z,3.04
2023-03-07T01:40:00.149Z,3.02
2023-03-07T01:42:34.798Z,3.15
2023-03-07T01:45:29.348Z,3.06
2023-03-07T01:48:02.341Z,3.02
2023-03-07T01:50:36.353Z,2.98
2023-03-07T01:53:10.559Z,2.91
2023-03-07T01:55:43.786Z,2.74
2023-03-07T01:58:22.404Z,2.76
2023-03-07T02:00:55.912Z,2.62
2023-03-07T02:03:36.214Z,2.80
2023-03-07T02:06:11.714Z,2.72
2023-03-07T02:08:46.693Z,2.78
2023-03-07T02:11:19.680Z,2.64
2023-03-07T02:13:54.200Z,2.46
2023-03-07T02:16:27.297Z,2.59
2023-03-07T02:19:00.231Z,2.50
2023-03-07T02:21:43.701Z,2.46
2023-03-07T02:24:23.651Z,2.49
2023-03-07T02:26:58.901Z,2.42
2023-03-07T02:29:31.806Z,2.43
2023-03-07T02:32:04.825Z,2.49
2023-03-07T02:34:38.182Z,2.28
2023-03-07T02:37:20.260Z,2.39
2023-03-07T02:39:55.951Z,2.37
2023-03-07T02:42:33.722Z,2.47
2023-03-07T02:45:20.229Z,2.43
2023-03-07T02:47:53.262Z,2.02
2023-03-07T02:50:26.335Z,2.23
2023-03-07T02:52:59.923Z,2.07
2023-03-07T02:55:33.711Z,2.17
2023-03-07T02:58:10.663Z,2.00
2023-03-07T03:00:43.993Z,2.10
2023-03-07T03:03:16.902Z,2.08
2023-03-07T03:05:49.842Z,1.97
2023-03-07T03:08:23.006Z,1.99
2023-03-07T03:10:56.054Z,2.04
2023-03-07T03:13:33.116Z,2.19
2023-03-07T03:16:06.724Z,2.14
2023-03-07T03:18:40.039Z,2.18
2023-03-07T03:21:14.964Z,2.20
2023-03-07T03:23:47.945Z,2.11
2023-03-07T03:26:21.071Z,2.20
2023-03-07T03:28:56.673Z,2.04
2023-03-07T03:31:30.463Z,2.02
2023-03-07T03:34:05.216Z,2.23
2023-03-07T03:36:38.946Z,1.97
2023-03-07T03:39:14.692Z,2.14
2023-03-07T03:41:52.171Z,2.16
2023-03-07T03:44:29.861Z,2.27
2023-03-07T03:47:04.224Z,2.21
2023-03-07T03:49:38.015Z,2.02
2023-03-07T03:52:12.144Z,2.05
2023-03-07T03:54:45.110Z,2.08
2023-03-07T03:57:20.534Z,2.00
2023-03-07T03:59:55.506Z,2.05
2023-03-07T04:02:30.633Z,2.00
2023-03-07T04:05:05.171Z,2.00
2023-03-07T04:07:38.087Z,2.20
2023-03-07T04:10:12.195Z,2.16
2023-03-07T04:12:46.131Z,2.00
2023-03-07T04:15:20.885Z,1.96
2023-03-07T04:17:53.733Z,2.01
2023-03-07T04:20:26.540Z,1.91
2023-03-07T04:22:59.446Z,2.14
2023-03-07T04:25:33.504Z,2.08
2023-03-07T04:28:06.888Z,2.07
2023-03-07T04:30:41.672Z,2.10
2023-03-07T04:33:14.655Z,2.08
2023-03-07T04:35:48.526Z,1.99
2023-03-07T04:38:21.691Z,2.22
2023-03-07T04:40:54.887Z,2.16
2023-03-07T04:43:28.384Z,2.21
2023-03-07T04:46:02.835Z,2.32
2023-03-07T04:48:35.876Z,2.25
2023-03-07T04:51:09.036Z,2.17
2023-03-07T04:53:42.176Z,2.11
2023-03-07T04:56:16.276Z,2.18
2023-03-07T04:58:50.036Z,2.14
2023-03-07T05:01:25.738Z,2.17
2023-03-07T05:03:58.995Z,2.06
2023-03-07T05:06:32.524Z,2.20
2023-03-07T05:09:05.948Z,2.36
2023-03-07T05:11:39.004Z,2.13
2023-03-07T05:14:13.657Z,2.16
2023-03-07T05:16:48.594Z,2.36
2023-03-07T05:19:21.568Z,2.33
2023-03-07T05:21:55.103Z,2.32
2023-03-07T05:24:28.205Z,2.32
2023-03-07T05:27:01.111Z,2.33
2023-03-07T05:29:33.963Z,2.28
2023-03-07T05:32:08.679Z,2.37
2023-03-07T05:34:41.735Z,2.38
2023-03-07T05:37:15.459Z,2.37
2023-03-07T05:39:48.749Z,2.42
2023-03-07T05:42:21.988Z,2.45
2023-03-07T05:44:55.497Z,2.36
2023-03-07T05:47:31.496Z,2.49
2023-03-07T05:50:04.934Z,2.44
2023-03-07T05:52:38.145Z,2.47
2023-03-07T05:55:11.628Z,2.59
2023-03-07T05:57:44.482Z,2.45
2023-03-07T06:00:18.126Z,2.40
2023-03-07T06:02:59.679Z,2.49
2023-03-07T06:05:32.862Z,2.42
2023-03-07T06:08:07.119Z,2.40
2023-03-07T06:10:40.772Z,2.58
2023-03-07T06:13:18.802Z,2.51
2023-03-07T06:15:51.986Z,2.50
2023-03-07T06:18:27.572Z,2.81
2023-03-07T06:21:02.770Z,2.55
2023-03-07T06:23:39.154Z,2.70
2023-03-07T06:26:16.910Z,2.73
2023-03-07T06:28:53.190Z,2.74
2023-03-07T06:31:27.206Z,2.75
2023-03-07T06:34:02.373Z,2.66
2023-03-07T06:36:35.225Z,2.74
2023-03-07T06:39:08.688Z,2.80
2023-03-07T06:41:42.035Z,2.87
2023-03-07T06:44:14.817Z,2.88
2023-03-07T06:46:47.780Z,2.89
2023-03-07T06:49:25.636Z,2.89
2023-03-07T06:51:58.441Z,3.00
2023-03-07T06:54:31.329Z,2.92
2023-03-07T06:57:04.608Z,3.05
2023-03-07T06:59:37.670Z,3.01
2023-03-07T07:02:13.251Z,3.12
2023-03-07T07:04:47.530Z,3.01
2023-03-07T07:07:20.963Z,3.05
2023-03-07T07:09:53.882Z,3.11
2023-03-07T07:12:28.130Z,3.16
2023-03-07T07:15:02.264Z,3.30
2023-03-07T07:17:35.861Z,3.20
2023-03-07T07:20:12.103Z,3.37
2023-03-07T07:22:46.842Z,3.32
2023-03-07T07:25:19.791Z,3.47
2023-03-07T07:27:53.228Z,3.54
2023-03-07T07:30:29.440Z,3.52
2023-03-07T07:33:02.397Z,3.64
2023-03-07T07:35:37.016Z,3.66
2023-03-07T07:38:09.883Z,3.74
2023-03-07T07:40:42.742Z,3.77
2023-03-07T07:43:17.244Z,3.90
2023-03-07T07:45:54.908Z,3.95
2023-03-07T07:48:27.963Z,4.03
2023-03-07T07:51:03.638Z,4.16
2023-03-07T07:53:36.868Z,4.26
2023-03-07T07:56:10.197Z,4.33
2023-03-07T07:58:43.059Z,4.32
2023-03-07T08:01:17.720Z,4.40
2023-03-07T08:03:50.839Z,4.33
2023-03-07T08:06:27.576Z,4.45
2023-03-07T08:09:01.033Z,4.40
2023-03-07T08:11:33.790Z,4.54
2023-03-07T08:14:06.554Z,4.51
2023-03-07T08:16:39.311Z,4.43
2023-03-07T08:19:12.141Z,4.51
2023-03-07T08:21:46.419Z,4.46
2023-03-07T08:24:20.743Z,4.44
2023-03-07T08:26:56.116Z,4.53
2023-03-07T08:29:29.039Z,4.59
2023-03-07T08:32:02.116Z,4.62
2023-03-07T08:34:35.016Z,4.68
2023-03-07T08:37:09.198Z,4.86
2023-03-07T08:39:41.971Z,5.00
2023-03-07T08:42:14.882Z,4.87
2023-03-07T08:44:47.704Z,5.02
2023-03-07T08:47:20.452Z,4.94
2023-03-07T08:49:53.314Z,5.04
2023-03-07T08:52:27.606Z,4.95
2023-03-07T08:55:00.438Z,5.19
2023-03-07T08:57:33.996Z,5.26
2023-03-07T09:00:10.888Z,5.30
2023-03-07T09:02:43.692Z,5.59
2023-03-07T09:05:16.660Z,5.57
2023-03-07T09:07:50.908Z,5.67
2023-03-07T09:10:24.163Z,5.80
2023-03-07T09:12:57.184Z,5.67
2023-03-07T09:15:30.068Z,5.87
2023-03-07T09:18:03.117Z,5.68
2023-03-07T09:20:36.433Z,5.99
2023-03-07T09:23:11.199Z,6.46
2023-03-07T09:25:44.457Z,6.54
2023-03-07T09:28:17.332Z,6.70
2023-03-07T09:30:50.237Z,6.51
2023-03-07T09:33:23.410Z,6.38
2023-03-07T09:35:56.377Z,6.55
2023-03-07T09:38:30.600Z,6.67
2023-03-07T09:41:16.690Z,6.59
2023-03-07T09:43:59.020Z,6.47
2023-03-07T09:47:11.582Z,6.52
2023-03-07T09:49:48.181Z,6.58
2023-03-07T09:52:24.290Z,6.74
2023-03-07T09:55:00.747Z,6.80
2023-03-07T09:57:35.651Z,7.06
2023-03-07T10:00:21.909Z,7.06
2023-03-07T10:03:04.829Z,7.22
2023-03-07T10:05:41.342Z,7.18
2023-03-07T10:08:17.987Z,7.23
2023-03-07T10:11:05.033Z,6.93
2023-03-07T10:13:53.144Z,6.94
2023-03-07T10:16:31.330Z,6.97
2023-03-07T10:19:15.093Z,7.08
2023-03-07T10:21:59.168Z,7.27
2023-03-07T10:24:52.827Z,7.37
2023-03-07T10:27:30.043Z,7.87
2023-03-07T10:30:13.337Z,7.93
2023-03-07T10:32:48.163Z,8.64
2023-03-07T10:35:24.424Z,8.55
2023-03-07T10:38:01.186Z,9.14
2023-03-07T10:40:40.893Z,8.37
2023-03-07T10:43:22.148Z,7.66
2023-03-07T10:46:01.172Z,7.38
2023-03-07T10:48:37.442Z,7.49
2023-03-07T10:51:27.842Z,8.06
2023-03-07T10:54:01.169Z,8.57
2023-03-07T10:56:36.728Z,9.28
2023-03-07T10:59:11.852Z,8.86
2023-03-07T11:01:55.421Z,8.60
2023-03-07T11:04:30.208Z,8.70
2023-03-07T11:07:03.884Z,9.20
2023-03-07T11:09:47.114Z,9.49
2023-03-07T11:12:21.827Z,8.94
2023-03-07T11:14:59.094Z,9.99
2023-03-07T11:17:42.840Z,9.52
2023-03-07T11:20:22.470Z,8.62
2023-03-07T11:23:15.889Z,8.18
2023-03-07T11:25:48.780Z,8.45
2023-03-07T11:28:31.274Z,8.41
2023-03-07T11:31:18.429Z,7.73
2023-03-07T11:33:59.384Z,7.90
2023-03-07T11:36:34.085Z,7.90
2023-03-07T11:39:16.576Z,7.20
2023-03-07T11:41:56.568Z,7.60
2023-03-07T11:44:41.274Z,7.75
2023-03-07T11:47:32.069Z,7.63
2023-03-07T11:50:23.802Z,7.47
2023-03-07T11:53:25.781Z,7.43
2023-03-07T11:56:19.372Z,8.04
2023-03-07T11:59:26.970Z,8.33
2023-03-07T12:02:02.456Z,8.91
2023-03-07T12:05:06.903Z,8.37
2023-03-07T12:08:04.426Z,9.19
2023-03-07T12:10:50.391Z,9.20
2023-03-07T12:13:37.906Z,8.85
2023-03-07T12:16:24.064Z,9.22
2023-03-07T12:19:14.397Z,9.21
2023-03-07T12:22:09.226Z,8.96
2023-03-07T12:24:54.851Z,9.08
2023-03-07T12:27:34.770Z,8.66
2023-03-07T12:30:18.975Z,8.51
2023-03-07T12:32:52.525Z,8.28
2023-03-07T12:35:29.441Z,8.64
2023-03-07T12:38:09.185Z,9.12
2023-03-07T12:40:46.241Z,9.22
2023-03-07T12:43:23.643Z,9.55
2023-03-07T12:46:04.578Z,8.79
2023-03-07T12:48:47.427Z,8.72
2023-03-07T12:51:26.638Z,8.21
2023-03-07T12:54:09.983Z,8.49
2023-03-07T12:56:52.404Z,8.48
2023-03-07T12:59:27.878Z,8.59
2023-03-07T13:02:05.074Z,8.28
2023-03-07T13:04:39.924Z,8.03
2023-03-07T13:07:16.634Z,7.86
2023-03-07T13:09:52.887Z,7.80
2023-03-07T13:12:34.997Z,7.94
2023-03-07T13:15:30.936Z,7.89
2023-03-07T13:18:03.790Z,7.61
2023-03-07T13:20:45.280Z,7.68
2023-03-07T13:23:29.097Z,8.09
2023-03-07T13:26:13.978Z,7.43
2023-03-07T13:28:51.648Z,7.55
2023-03-07T13:31:39.793Z,7.43
2023-03-07T13:34:54.148Z,7.75
2023-03-07T13:37:51.417Z,7.65
2023-03-07T13:40:55.183Z,7.94
2023-03-07T13:43:37.757Z,7.48
2023-03-07T13:46:46.181Z,7.33
2023-03-07T13:49:36.736Z,7.14
2023-03-07T13:52:30.127Z,7.73
2023-03-07T13:55:05.654Z,7.84
2023-03-07T13:57:41.823Z,8.51
2023-03-07T14:00:28.204Z,8.76
2023-03-07T14:03:01.842Z,8.19
2023-03-07T14:05:35.330Z,8.72
2023-03-07T14:08:13.061Z,8.61
2023-03-07T14:10:47.696Z,8.89
2023-03-07T14:13:51.277Z,9.42
2023-03-07T14:16:42.227Z,8.72
2023-03-07T14:19:28.199Z,8.30
2023-03-07T14:22:05.725Z,7.83
2023-03-07T14:24:58.542Z,7.80
2023-03-07T14:27:32.746Z,7.71
2023-03-07T14:30:17.239Z,7.79
2023-03-07T14:33:01.508Z,7.57
2023-03-07T14:35:42.823Z,7.69
2023-03-07T14:38:20.848Z,7.46
2023-03-07T14:41:04.874Z,7.25
2023-03-07T14:43:51.707Z,7.38
2023-03-07T14:46:35.628Z,7.26
2023-03-07T14:49:24.370Z,7.28
2023-03-07T14:51:59.022Z,7.38
2023-03-07T14:54:34.262Z,7.26
2023-03-07T14:57:19.363Z,7.21
2023-03-07T15:00:28.199Z,7.16
2023-03-07T15:03:07.693Z,7.42
2023-03-07T15:05:51.433Z,7.14
2023-03-07T15:08:26.197Z,7.10
2023-03-07T15:11:07.206Z,7.03
2023-03-07T15:13:45.922Z,7.12
2023-03-07T15:16:25.116Z,7.14
2023-03-07T15:19:01.928Z,7.15
2023-03-07T15:21:39.835Z,7.12
2023-03-07T15:24:18.732Z,7.00
2023-03-07T15:26:53.879Z,7.01
2023-03-07T15:29:28.665Z,6.93
2023-03-07T15:32:04.000Z,6.76
2023-03-07T15:34:39.109Z,6.72
2023-03-07T15:37:23.979Z,6.71
2023-03-07T15:39:58.336Z,6.50
2023-03-07T15:42:31.253Z,6.46
2023-03-07T15:45:04.947Z,6.53
2023-03-07T15:47:37.850Z,6.61
2023-03-07T15:50:23.573Z,6.54
2023-03-07T15:53:03.478Z,6.38
2023-03-07T15:55:36.958Z,6.35
2023-03-07T15:58:15.484Z,6.43
2023-03-07T16:00:48.346Z,6.60
2023-03-07T16:03:26.302Z,6.49
2023-03-07T16:06:01.014Z,6.40
2023-03-07T16:08:35.201Z,6.42
2023-03-07T16:11:08.792Z,6.39
2023-03-07T16:13:44.815Z,6.48
2023-03-07T16:16:20.942Z,6.42
2023-03-07T16:18:54.968Z,6.49
2023-03-07T16:21:28.757Z,6.45
2023-03-07T16:24:04.140Z,6.33
2023-03-07T16:26:37.175Z,6.38
2023-03-07T16:29:15.524Z,6.34
2023-03-07T16:31:48.897Z,6.25
2023-03-07T16:34:23.928Z,6.30
2023-03-07T16:36:56.727Z,6.20
2023-03-07T16:39:30.972Z,6.24
2023-03-07T16:42:04.439Z,6.06
2023-03-07T16:44:40.470Z,6.09
2023-03-07T16:47:16.039Z,6.12
2023-03-07T16:49:49.044Z,6.05
2023-03-07T16:52:23.601Z,6.05
2023-03-07T16:54:57.721Z,6.03
2023-03-07T16:57:30.525Z,5.95
2023-03-07T17:00:04.105Z,5.99
2023-03-07T17:02:38.211Z,5.91
2023-03-07T17:05:16.799Z,5.89
2023-03-07T17:07:49.775Z,5.91
2023-03-07T17:10:26.325Z,5.92
2023-03-07T17:13:02.154Z,5.85
2023-03-07T17:15:36.503Z,5.88
2023-03-07T17:18:09.371Z,5.89
2023-03-07T17:20:42.362Z,5.78
2023-03-07T17:23:15.444Z,5.78
2023-03-07T17:25:49.688Z,5.79
2023-03-07T17:28:22.572Z,5.78
2023-03-07T17:38:17.355Z,5.42
2023-03-07T17:41:22.084Z,5.34
2023-03-07T17:44:28.331Z,5.33
2023-03-07T17:50:58.102Z,5.19
2023-03-07T17:53:30.873Z,5.11
2023-03-07T17:56:09.095Z,5.17
2023-03-07T17:58:41.864Z,5.05
2023-03-07T18:01:15.230Z,5.04
2023-03-07T18:03:48.404Z,5.08
2023-03-07T18:06:21.356Z,5.09
2023-03-07T18:08:55.153Z,5.01
2023-03-07T18:11:29.658Z,4.86
2023-03-07T18:14:03.686Z,5.00
2023-03-07T18:16:36.607Z,4.94
2023-03-07T18:19:20.486Z,4.96
2023-03-07T18:21:59.072Z,4.98
2023-03-07T18:24:32.136Z,4.97
2023-03-07T18:27:08.710Z,5.00
2023-03-07T18:29:41.576Z,5.07
2023-03-07T18:32:14.687Z,5.16
2023-03-07T18:58:01.441Z,5.30
2023-03-07T19:00:34.257Z,5.26
2023-03-07T19:03:07.427Z,5.25
2023-03-07T19:05:43.898Z,5.28
2023-03-07T19:08:18.063Z,5.16
2023-03-07T19:10:51.214Z,5.27
2023-03-07T19:13:25.614Z,5.40
2023-03-07T19:16:03.292Z,5.42
2023-03-07T19:18:37.442Z,5.44
2023-03-07T19:21:12.280Z,5.26
2023-03-07T19:23:45.032Z,5.31
2023-03-07T19:26:19.348Z,5.44
2023-03-07T19:28:55.250Z,5.28
2023-03-07T19:31:29.574Z,5.34
2023-03-07T19:34:03.495Z,5.40
2023-03-07T19:36:37.492Z,5.38
2023-03-07T19:39:15.058Z,5.30
2023-03-07T19:41:48.986Z,5.45
2023-03-07T19:44:23.373Z,5.36
2023-03-07T19:46:56.401Z,5.36
2023-03-07T19:49:29.669Z,5.48
2023-03-07T19:52:02.620Z,5.45
2023-03-07T19:54:35.618Z,5.43
2023-03-07T19:57:09.398Z,5.47
2023-03-07T19:59:43.855Z,5.55
2023-03-07T20:02:17.092Z,5.41
2023-03-07T20:04:50.559Z,5.53
2023-03-07T20:07:23.617Z,5.47
2023-03-07T20:09:56.453Z,5.51
2023-03-07T20:12:32.594Z,5.53
2023-03-07T20:15:08.760Z,5.52
2023-03-07T20:17:41.637Z,5.54
2023-03-07T20:20:15.311Z,5.59
2023-03-07T20:22:49.042Z,5.43
2023-03-07T20:25:21.940Z,5.51
2023-03-07T20:27:54.771Z,5.56
2023-03-07T20:30:29.259Z,5.55
2023-03-07T20:33:02.177Z,5.49
2023-03-07T20:35:35.089Z,5.53
2023-03-07T20:38:07.912Z,5.54
2023-03-07T20:40:41.044Z,5.49
2023-03-07T20:43:13.908Z,5.62
2023-03-07T20:45:48.030Z,5.60
2023-03-07T20:48:20.879Z,5.61
2023-03-07T20:50:53.745Z,5.67
2023-03-07T20:53:26.725Z,5.60
2023-03-07T20:56:02.922Z,5.59
2023-03-07T20:58:36.071Z,5.57
2023-03-07T21:01:11.257Z,5.54
2023-03-07T21:03:44.380Z,5.50
2023-03-07T21:06:18.066Z,5.51
2023-03-07T21:08:50.983Z,5.49
2023-03-07T21:11:24.072Z,5.46
2023-03-07T21:13:57.061Z,5.41
2023-03-07T21:16:31.285Z,5.55
2023-03-07T21:19:06.851Z,5.46
2023-03-07T21:21:40.519Z,5.42
2023-03-07T21:24:15.478Z,5.48
2023-03-07T21:26:48.558Z,5.45
2023-03-07T21:29:21.385Z,5.45
2023-03-07T21:31:55.786Z,5.38
2023-03-07T21:34:28.747Z,5.37
2023-03-07T21:37:01.568Z,5.34
2023-03-07T21:39:34.731Z,5.39
2023-03-07T21:42:07.512Z,5.26
2023-03-07T21:44:40.341Z,5.29
2023-03-07T21:47:17.250Z,5.39
2023-03-07T21:49:50.215Z,5.32
2023-03-07T21:52:23.552Z,5.20
2023-03-07T21:54:56.733Z,5.33
2023-03-07T21:57:29.907Z,5.23
2023-03-07T22:00:03.205Z,5.28
2023-03-07T22:02:38.590Z,5.27
2023-03-07T22:05:11.603Z,5.27
2023-03-07T22:07:44.418Z,5.21
2023-03-07T22:10:18.395Z,5.31
2023-03-07T22:12:51.237Z,5.23
2023-03-07T22:15:24.067Z,5.22
2023-03-07T22:17:58.250Z,5.21
2023-03-07T22:20:31.343Z,5.26
2023-03-07T22:23:04.122Z,5.07
2023-03-07T22:25:36.905Z,5.08
2023-03-07T22:28:09.947Z,5.01
2023-03-07T22:30:42.745Z,5.02
2023-03-07T22:33:17.307Z,5.05
2023-03-07T22:35:56.835Z,5.01
2023-03-07T22:38:30.106Z,4.95
2023-03-07T22:41:03.864Z,4.97
2023-03-07T22:43:37.901Z,4.92
2023-03-07T22:46:11.703Z,4.93
2023-03-07T22:48:45.979Z,4.87
2023-03-07T22:51:19.226Z,4.92
2023-03-07T22:53:52.156Z,4.92
2023-03-07T22:56:27.643Z,4.97
2023-03-07T22:59:02.908Z,4.93
2023-03-07T23:01:35.715Z,5.11
2023-03-07T23:04:10.715Z,4.90
2023-03-07T23:06:43.609Z,5.03
2023-03-07T23:09:16.502Z,4.99
2023-03-07T23:11:49.502Z,5.07
2023-03-07T23:14:24.637Z,5.10
2023-03-07T23:16:57.452Z,5.14
2023-03-07T23:19:31.725Z,5.19
2023-03-07T23:22:04.789Z,5.15
2023-03-07T23:24:37.637Z,5.18
2023-03-07T23:27:10.454Z,5.18
2023-03-07T23:29:43.251Z,5.18
2023-03-07T23:32:16.330Z,5.19
2023-03-07T23:34:50.685Z,5.24
2023-03-07T23:37:23.615Z,5.33
2023-03-07T23:39:58.653Z,5.34
2023-03-07T23:42:31.440Z,5.26
2023-03-07T23:45:04.726Z,5.34
2023-03-07T23:47:37.779Z,5.31
2023-03-07T23:50:12.928Z,5.32
2023-03-07T23:52:45.801Z,5.25
2023-03-07T23:55:19.313Z,5.32
2023-03-07T23:57:52.099Z,5.41
